sensor_id;sensor_type;location;lat;lon;timestamp;P1;durP1;ratioP1;P2;durP2;ratioP2
21591;SDS011;10958;50.892;3.992;2022-08-05T00:00:16;5.18;;;1.92;;
21591;SDS011;10958;50.892;3.992;2022-08-05T00:02:43;5.53;;;1.95;;
21591;SDS011;10958;50.892;3.992;2022-08-05T00:05:10;7.60;;;2.17;;
21591;SDS011;10958;50.892;3.992;2022-08-05T00:07:35;4.65;;;1.95;;
21591;SDS011;10958;50.892;3.992;2022-08-05T00:10:01;6.70;;;2.10;;
21591;SDS011;10958;50.892;3.992;2022-08-05T00:12:27;5.45;;;1.90;;
21591;SDS011;10958;50.892;3.992;2022-08-05T00:14:53;6.68;;;2.05;;
21591;SDS011;10958;50.892;3.992;2022-08-05T00:17:19;4.75;;;2.08;;
21591;SDS011;10958;50.892;3.992;2022-08-05T00:19:44;10.82;;;2.35;;
21591;SDS011;10958;50.892;3.992;2022-08-05T00:22:10;4.97;;;2.30;;
21591;SDS011;10958;50.892;3.992;2022-08-05T00:24:36;6.18;;;2.38;;
21591;SDS011;10958;50.892;3.992;2022-08-05T00:27:02;5.03;;;2.25;;
21591;SDS011;10958;50.892;3.992;2022-08-05T00:29:27;3.10;;;1.80;;
21591;SDS011;10958;50.892;3.992;2022-08-05T00:31:53;7.72;;;2.20;;
21591;SDS011;10958;50.892;3.992;2022-08-05T00:34:19;7.03;;;2.15;;
21591;SDS011;10958;50.892;3.992;2022-08-05T00:36:45;6.97;;;2.55;;
21591;SDS011;10958;50.892;3.992;2022-08-05T00:39:10;7.78;;;2.90;;
21591;SDS011;10958;50.892;3.992;2022-08-05T00:41:36;12.57;;;2.83;;
21591;SDS011;10958;50.892;3.992;2022-08-05T00:44:02;8.43;;;2.15;;
21591;SDS011;10958;50.892;3.992;2022-08-05T00:46:29;7.55;;;2.63;;
21591;SDS011;10958;50.892;3.992;2022-08-05T00:48:54;8.60;;;2.60;;
21591;SDS011;10958;50.892;3.992;2022-08-05T00:51:20;6.82;;;2.50;;
21591;SDS011;10958;50.892;3.992;2022-08-05T00:53:46;5.45;;;2.47;;
21591;SDS011;10958;50.892;3.992;2022-08-05T00:56:16;7.25;;;2.55;;
21591;SDS011;10958;50.892;3.992;2022-08-05T00:58:42;4.47;;;2.33;;
21591;SDS011;10958;50.892;3.992;2022-08-05T01:01:09;6.10;;;2.67;;
21591;SDS011;10958;50.892;3.992;2022-08-05T01:03:36;6.38;;;2.40;;
21591;SDS011;10958;50.892;3.992;2022-08-05T01:06:02;8.05;;;2.20;;
21591;SDS011;10958;50.892;3.992;2022-08-05T01:08:28;7.05;;;2.78;;
21591;SDS011;10958;50.892;3.992;2022-08-05T01:10:58;5.90;;;2.40;;
21591;SDS011;10958;50.892;3.992;2022-08-05T01:16:36;9.18;;;2.58;;
21591;SDS011;10958;50.892;3.992;2022-08-05T01:19:18;11.05;;;2.97;;
21591;SDS011;10958;50.892;3.992;2022-08-05T01:22:10;9.25;;;2.50;;
21591;SDS011;10958;50.892;3.992;2022-08-05T01:27:24;5.65;;;2.33;;
21591;SDS011;10958;50.892;3.992;2022-08-05T01:30:09;8.10;;;2.45;;
21591;SDS011;10958;50.892;3.992;2022-08-05T01:32:36;6.60;;;1.95;;
21591;SDS011;10958;50.892;3.992;2022-08-05T01:35:05;10.52;;;2.35;;
21591;SDS011;10958;50.892;3.992;2022-08-05T01:40:17;8.73;;;2.30;;
21591;SDS011;10958;50.892;3.992;2022-08-05T01:42:46;6.85;;;2.75;;
21591;SDS011;10958;50.892;3.992;2022-08-05T01:45:15;6.45;;;2.50;;
21591;SDS011;10958;50.892;3.992;2022-08-05T01:47:48;7.57;;;2.50;;
21591;SDS011;10958;50.892;3.992;2022-08-05T01:50:24;7.00;;;2.15;;
21591;SDS011;10958;50.892;3.992;2022-08-05T01:52:52;4.88;;;2.10;;
21591;SDS011;10958;50.892;3.992;2022-08-05T01:55:21;6.43;;;2.20;;
21591;SDS011;10958;50.892;3.992;2022-08-05T01:57:49;8.27;;;2.33;;
21591;SDS011;10958;50.892;3.992;2022-08-05T02:00:17;7.20;;;2.53;;
21591;SDS011;10958;50.892;3.992;2022-08-05T02:02:53;8.57;;;2.10;;
21591;SDS011;10958;50.892;3.992;2022-08-05T02:05:24;4.22;;;2.17;;
21591;SDS011;10958;50.892;3.992;2022-08-05T02:07:55;6.57;;;1.73;;
21591;SDS011;10958;50.892;3.992;2022-08-05T02:10:22;5.90;;;1.98;;
21591;SDS011;10958;50.892;3.992;2022-08-05T02:12:52;7.05;;;2.28;;
21591;SDS011;10958;50.892;3.992;2022-08-05T02:18:07;5.50;;;2.17;;
21591;SDS011;10958;50.892;3.992;2022-08-05T02:20:56;5.03;;;1.75;;
21591;SDS011;10958;50.892;3.992;2022-08-05T02:23:28;6.72;;;2.22;;
21591;SDS011;10958;50.892;3.992;2022-08-05T02:25:56;6.88;;;2.80;;
21591;SDS011;10958;50.892;3.992;2022-08-05T02:28:27;5.95;;;2.08;;
21591;SDS011;10958;50.892;3.992;2022-08-05T02:31:03;8.23;;;2.22;;
21591;SDS011;10958;50.892;3.992;2022-08-05T02:33:33;4.40;;;2.50;;
21591;SDS011;10958;50.892;3.992;2022-08-05T02:36:02;5.57;;;2.10;;
21591;SDS011;10958;50.892;3.992;2022-08-05T02:38:30;6.72;;;2.67;;
21591;SDS011;10958;50.892;3.992;2022-08-05T02:40:57;6.95;;;2.30;;
21591;SDS011;10958;50.892;3.992;2022-08-05T02:43:24;6.50;;;2.40;;
21591;SDS011;10958;50.892;3.992;2022-08-05T02:45:50;9.55;;;2.55;;
21591;SDS011;10958;50.892;3.992;2022-08-05T02:48:17;7.88;;;2.22;;
21591;SDS011;10958;50.892;3.992;2022-08-05T02:50:45;5.65;;;2.03;;
21591;SDS011;10958;50.892;3.992;2022-08-05T02:53:14;7.47;;;2.45;;
21591;SDS011;10958;50.892;3.992;2022-08-05T02:55:43;5.97;;;2.42;;
21591;SDS011;10958;50.892;3.992;2022-08-05T02:58:13;8.57;;;2.60;;
21591;SDS011;10958;50.892;3.992;2022-08-05T03:00:43;8.18;;;2.58;;
21591;SDS011;10958;50.892;3.992;2022-08-05T03:03:11;5.75;;;2.55;;
21591;SDS011;10958;50.892;3.992;2022-08-05T03:05:41;7.97;;;3.00;;
21591;SDS011;10958;50.892;3.992;2022-08-05T03:08:08;6.88;;;2.72;;
21591;SDS011;10958;50.892;3.992;2022-08-05T03:10:35;7.65;;;3.08;;
21591;SDS011;10958;50.892;3.992;2022-08-05T03:13:00;9.73;;;2.75;;
21591;SDS011;10958;50.892;3.992;2022-08-05T03:15:26;10.40;;;3.38;;
21591;SDS011;10958;50.892;3.992;2022-08-05T03:17:52;7.50;;;2.90;;
21591;SDS011;10958;50.892;3.992;2022-08-05T03:20:19;7.25;;;3.00;;
21591;SDS011;10958;50.892;3.992;2022-08-05T03:22:44;9.35;;;3.13;;
21591;SDS011;10958;50.892;3.992;2022-08-05T03:25:10;8.60;;;2.85;;
21591;SDS011;10958;50.892;3.992;2022-08-05T03:27:37;11.02;;;3.60;;
21591;SDS011;10958;50.892;3.992;2022-08-05T03:30:04;10.00;;;3.40;;
21591;SDS011;10958;50.892;3.992;2022-08-05T03:32:30;6.85;;;3.15;;
21591;SDS011;10958;50.892;3.992;2022-08-05T03:34:56;12.20;;;3.25;;
21591;SDS011;10958;50.892;3.992;2022-08-05T03:37:23;6.38;;;3.20;;
21591;SDS011;10958;50.892;3.992;2022-08-05T03:39:55;7.97;;;3.30;;
21591;SDS011;10958;50.892;3.992;2022-08-05T03:42:22;6.63;;;3.13;;
21591;SDS011;10958;50.892;3.992;2022-08-05T03:44:48;10.20;;;3.88;;
21591;SDS011;10958;50.892;3.992;2022-08-05T03:47:14;8.52;;;3.42;;
21591;SDS011;10958;50.892;3.992;2022-08-05T03:49:40;8.30;;;3.10;;
21591;SDS011;10958;50.892;3.992;2022-08-05T03:52:07;6.45;;;2.92;;
21591;SDS011;10958;50.892;3.992;2022-08-05T03:54:39;7.22;;;3.33;;
21591;SDS011;10958;50.892;3.992;2022-08-05T03:57:23;7.95;;;3.13;;
21591;SDS011;10958;50.892;3.992;2022-08-05T03:59:57;7.53;;;3.33;;
21591;SDS011;10958;50.892;3.992;2022-08-05T04:02:27;7.05;;;3.33;;
21591;SDS011;10958;50.892;3.992;2022-08-05T04:04:56;6.87;;;3.67;;
21591;SDS011;10958;50.892;3.992;2022-08-05T04:07:23;9.80;;;3.47;;
21591;SDS011;10958;50.892;3.992;2022-08-05T04:09:51;12.77;;;4.18;;
21591;SDS011;10958;50.892;3.992;2022-08-05T04:12:18;8.07;;;3.83;;
21591;SDS011;10958;50.892;3.992;2022-08-05T04:14:44;8.50;;;4.63;;
21591;SDS011;10958;50.892;3.992;2022-08-05T04:17:10;12.10;;;3.95;;
21591;SDS011;10958;50.892;3.992;2022-08-05T04:19:45;11.52;;;4.78;;
21591;SDS011;10958;50.892;3.992;2022-08-05T04:22:12;8.45;;;4.10;;
21591;SDS011;10958;50.892;3.992;2022-08-05T04:24:44;10.73;;;4.15;;
21591;SDS011;10958;50.892;3.992;2022-08-05T04:27:11;8.75;;;3.72;;
21591;SDS011;10958;50.892;3.992;2022-08-05T04:29:37;9.77;;;3.80;;
21591;SDS011;10958;50.892;3.992;2022-08-05T04:32:03;10.93;;;4.13;;
21591;SDS011;10958;50.892;3.992;2022-08-05T04:34:29;7.32;;;4.15;;
21591;SDS011;10958;50.892;3.992;2022-08-05T04:36:55;8.60;;;4.47;;
21591;SDS011;10958;50.892;3.992;2022-08-05T04:39:21;12.25;;;4.47;;
21591;SDS011;10958;50.892;3.992;2022-08-05T04:41:47;8.80;;;4.53;;
21591;SDS011;10958;50.892;3.992;2022-08-05T04:44:13;9.50;;;4.68;;
21591;SDS011;10958;50.892;3.992;2022-08-05T04:46:38;8.05;;;4.70;;
21591;SDS011;10958;50.892;3.992;2022-08-05T04:49:07;13.10;;;4.90;;
21591;SDS011;10958;50.892;3.992;2022-08-05T04:51:33;9.82;;;4.30;;
21591;SDS011;10958;50.892;3.992;2022-08-05T04:53:59;11.50;;;5.50;;
21591;SDS011;10958;50.892;3.992;2022-08-05T04:56:25;12.60;;;5.88;;
21591;SDS011;10958;50.892;3.992;2022-08-05T04:58:50;10.77;;;4.93;;
21591;SDS011;10958;50.892;3.992;2022-08-05T05:01:16;11.93;;;5.35;;
21591;SDS011;10958;50.892;3.992;2022-08-05T05:03:42;11.75;;;6.00;;
21591;SDS011;10958;50.892;3.992;2022-08-05T05:06:09;14.43;;;5.20;;
21591;SDS011;10958;50.892;3.992;2022-08-05T05:08:35;11.85;;;5.57;;
21591;SDS011;10958;50.892;3.992;2022-08-05T05:11:01;13.38;;;5.75;;
21591;SDS011;10958;50.892;3.992;2022-08-05T05:13:27;10.52;;;5.70;;
21591;SDS011;10958;50.892;3.992;2022-08-05T05:15:53;9.30;;;5.53;;
21591;SDS011;10958;50.892;3.992;2022-08-05T05:18:18;8.60;;;5.85;;
21591;SDS011;10958;50.892;3.992;2022-08-05T05:20:45;10.85;;;5.70;;
21591;SDS011;10958;50.892;3.992;2022-08-05T05:23:12;13.07;;;5.97;;
21591;SDS011;10958;50.892;3.992;2022-08-05T05:25:41;10.63;;;6.07;;
21591;SDS011;10958;50.892;3.992;2022-08-05T05:28:09;8.23;;;6.00;;
21591;SDS011;10958;50.892;3.992;2022-08-05T05:30:35;17.25;;;6.30;;
21591;SDS011;10958;50.892;3.992;2022-08-05T05:33:03;10.15;;;5.70;;
21591;SDS011;10958;50.892;3.992;2022-08-05T05:35:30;11.73;;;6.70;;
21591;SDS011;10958;50.892;3.992;2022-08-05T05:37:57;11.95;;;6.45;;
21591;SDS011;10958;50.892;3.992;2022-08-05T05:40:31;14.88;;;6.63;;
21591;SDS011;10958;50.892;3.992;2022-08-05T05:42:57;12.98;;;6.05;;
21591;SDS011;10958;50.892;3.992;2022-08-05T05:45:24;11.38;;;6.63;;
21591;SDS011;10958;50.892;3.992;2022-08-05T05:47:49;11.68;;;6.10;;
21591;SDS011;10958;50.892;3.992;2022-08-05T05:50:16;11.98;;;6.50;;
21591;SDS011;10958;50.892;3.992;2022-08-05T05:52:43;11.68;;;6.38;;
21591;SDS011;10958;50.892;3.992;2022-08-05T05:55:11;13.07;;;6.60;;
21591;SDS011;10958;50.892;3.992;2022-08-05T05:57:39;12.07;;;6.57;;
21591;SDS011;10958;50.892;3.992;2022-08-05T06:00:07;11.17;;;6.60;;
21591;SDS011;10958;50.892;3.992;2022-08-05T06:02:34;11.23;;;6.65;;
21591;SDS011;10958;50.892;3.992;2022-08-05T06:05:00;12.15;;;6.13;;
21591;SDS011;10958;50.892;3.992;2022-08-05T06:07:26;15.52;;;6.68;;
21591;SDS011;10958;50.892;3.992;2022-08-05T06:09:52;13.48;;;6.72;;
21591;SDS011;10958;50.892;3.992;2022-08-05T06:12:17;10.45;;;6.68;;
21591;SDS011;10958;50.892;3.992;2022-08-05T06:14:43;11.07;;;6.50;;
21591;SDS011;10958;50.892;3.992;2022-08-05T06:17:09;17.45;;;6.80;;
21591;SDS011;10958;50.892;3.992;2022-08-05T06:19:36;11.20;;;6.38;;
21591;SDS011;10958;50.892;3.992;2022-08-05T06:22:02;11.13;;;6.30;;
21591;SDS011;10958;50.892;3.992;2022-08-05T06:24:28;9.10;;;6.18;;
21591;SDS011;10958;50.892;3.992;2022-08-05T06:26:55;10.82;;;5.53;;
21591;SDS011;10958;50.892;3.992;2022-08-05T06:29:20;15.25;;;6.22;;
21591;SDS011;10958;50.892;3.992;2022-08-05T06:31:46;13.63;;;6.97;;
21591;SDS011;10958;50.892;3.992;2022-08-05T06:34:12;13.13;;;5.80;;
21591;SDS011;10958;50.892;3.992;2022-08-05T06:36:37;10.25;;;5.53;;
21591;SDS011;10958;50.892;3.992;2022-08-05T06:39:03;9.13;;;5.43;;
21591;SDS011;10958;50.892;3.992;2022-08-05T06:41:28;11.18;;;5.55;;
21591;SDS011;10958;50.892;3.992;2022-08-05T06:43:54;14.02;;;5.60;;
21591;SDS011;10958;50.892;3.992;2022-08-05T06:46:20;10.43;;;5.18;;
21591;SDS011;10958;50.892;3.992;2022-08-05T06:48:46;9.73;;;4.55;;
21591;SDS011;10958;50.892;3.992;2022-08-05T06:51:12;9.57;;;4.95;;
21591;SDS011;10958;50.892;3.992;2022-08-05T06:53:38;8.40;;;4.35;;
21591;SDS011;10958;50.892;3.992;2022-08-05T06:56:04;8.82;;;4.72;;
21591;SDS011;10958;50.892;3.992;2022-08-05T06:58:30;10.15;;;4.68;;
21591;SDS011;10958;50.892;3.992;2022-08-05T07:01:00;7.63;;;4.72;;
21591;SDS011;10958;50.892;3.992;2022-08-05T07:03:26;6.47;;;4.55;;
21591;SDS011;10958;50.892;3.992;2022-08-05T07:05:53;9.80;;;3.80;;
21591;SDS011;10958;50.892;3.992;2022-08-05T07:08:19;8.27;;;3.92;;
21591;SDS011;10958;50.892;3.992;2022-08-05T07:10:46;9.63;;;3.83;;
21591;SDS011;10958;50.892;3.992;2022-08-05T07:13:12;4.78;;;3.55;;
21591;SDS011;10958;50.892;3.992;2022-08-05T07:15:57;9.20;;;3.58;;
21591;SDS011;10958;50.892;3.992;2022-08-05T07:18:41;5.82;;;3.60;;
21591;SDS011;10958;50.892;3.992;2022-08-05T07:21:06;8.13;;;3.55;;
21591;SDS011;10958;50.892;3.992;2022-08-05T07:31:39;6.00;;;2.55;;
21591;SDS011;10958;50.892;3.992;2022-08-05T07:34:05;5.50;;;2.67;;
21591;SDS011;10958;50.892;3.992;2022-08-05T07:36:31;6.55;;;2.88;;
21591;SDS011;10958;50.892;3.992;2022-08-05T07:39:02;7.93;;;2.60;;
21591;SDS011;10958;50.892;3.992;2022-08-05T07:41:29;6.78;;;2.92;;
21591;SDS011;10958;50.892;3.992;2022-08-05T07:51:40;9.05;;;1.90;;
21591;SDS011;10958;50.892;3.992;2022-08-05T07:54:06;6.03;;;2.33;;
21591;SDS011;10958;50.892;3.992;2022-08-05T07:56:32;6.38;;;2.00;;
21591;SDS011;10958;50.892;3.992;2022-08-05T07:58:58;3.75;;;1.90;;
21591;SDS011;10958;50.892;3.992;2022-08-05T08:01:23;6.10;;;1.80;;
21591;SDS011;10958;50.892;3.992;2022-08-05T08:03:51;5.68;;;2.05;;
21591;SDS011;10958;50.892;3.992;2022-08-05T08:06:17;4.18;;;1.98;;
21591;SDS011;10958;50.892;3.992;2022-08-05T08:08:43;4.68;;;1.88;;
21591;SDS011;10958;50.892;3.992;2022-08-05T08:11:08;5.22;;;1.42;;
21591;SDS011;10958;50.892;3.992;2022-08-05T08:13:34;4.22;;;2.00;;
21591;SDS011;10958;50.892;3.992;2022-08-05T08:16:00;5.15;;;1.67;;
21591;SDS011;10958;50.892;3.992;2022-08-05T08:18:26;6.07;;;1.98;;
21591;SDS011;10958;50.892;3.992;2022-08-05T08:20:51;5.90;;;2.10;;
21591;SDS011;10958;50.892;3.992;2022-08-05T08:23:17;6.75;;;2.05;;
21591;SDS011;10958;50.892;3.992;2022-08-05T08:25:43;9.43;;;1.83;;
21591;SDS011;10958;50.892;3.992;2022-08-05T08:28:09;6.00;;;1.63;;
21591;SDS011;10958;50.892;3.992;2022-08-05T08:30:35;4.22;;;1.67;;
21591;SDS011;10958;50.892;3.992;2022-08-05T08:33:05;6.65;;;2.17;;
21591;SDS011;10958;50.892;3.992;2022-08-05T08:35:35;4.30;;;1.60;;
21591;SDS011;10958;50.892;3.992;2022-08-05T08:38:02;4.88;;;1.63;;
21591;SDS011;10958;50.892;3.992;2022-08-05T08:40:30;3.03;;;1.52;;
21591;SDS011;10958;50.892;3.992;2022-08-05T08:42:58;2.75;;;1.30;;
21591;SDS011;10958;50.892;3.992;2022-08-05T08:45:25;4.28;;;1.15;;
21591;SDS011;10958;50.892;3.992;2022-08-05T08:47:51;4.10;;;1.30;;
21591;SDS011;10958;50.892;3.992;2022-08-05T08:50:19;4.50;;;1.50;;
21591;SDS011;10958;50.892;3.992;2022-08-05T08:52:48;5.03;;;1.23;;
21591;SDS011;10958;50.892;3.992;2022-08-05T08:55:17;2.08;;;1.30;;
21591;SDS011;10958;50.892;3.992;2022-08-05T08:57:44;2.80;;;1.20;;
21591;SDS011;10958;50.892;3.992;2022-08-05T09:00:11;3.10;;;1.45;;
21591;SDS011;10958;50.892;3.992;2022-08-05T09:02:37;3.28;;;1.30;;
21591;SDS011;10958;50.892;3.992;2022-08-05T09:05:03;3.33;;;1.10;;
21591;SDS011;10958;50.892;3.992;2022-08-05T09:07:29;2.72;;;1.02;;
21591;SDS011;10958;50.892;3.992;2022-08-05T09:09:54;5.65;;;1.15;;
21591;SDS011;10958;50.892;3.992;2022-08-05T09:12:20;2.53;;;1.05;;
21591;SDS011;10958;50.892;3.992;2022-08-05T09:14:46;3.20;;;1.25;;
21591;SDS011;10958;50.892;3.992;2022-08-05T09:17:12;2.42;;;1.00;;
21591;SDS011;10958;50.892;3.992;2022-08-05T09:19:38;3.20;;;0.85;;
21591;SDS011;10958;50.892;3.992;2022-08-05T09:22:04;4.38;;;1.17;;
21591;SDS011;10958;50.892;3.992;2022-08-05T09:24:32;4.85;;;1.17;;
21591;SDS011;10958;50.892;3.992;2022-08-05T09:27:00;1.88;;;0.98;;
21591;SDS011;10958;50.892;3.992;2022-08-05T09:29:36;4.32;;;0.90;;
21591;SDS011;10958;50.892;3.992;2022-08-05T09:32:04;2.13;;;1.92;;
21591;SDS011;10958;50.892;3.992;2022-08-05T09:37:20;5.70;;;1.67;;
21591;SDS011;10958;50.892;3.992;2022-08-05T09:39:47;2.10;;;1.00;;
21591;SDS011;10958;50.892;3.992;2022-08-05T09:42:14;2.00;;;1.33;;
21591;SDS011;10958;50.892;3.992;2022-08-05T09:44:42;3.28;;;1.40;;
21591;SDS011;10958;50.892;3.992;2022-08-05T09:47:11;5.28;;;1.25;;
21591;SDS011;10958;50.892;3.992;2022-08-05T09:49:48;1.50;;;1.10;;
21591;SDS011;10958;50.892;3.992;2022-08-05T09:54:55;3.95;;;0.82;;
21591;SDS011;10958;50.892;3.992;2022-08-05T09:57:31;2.80;;;0.90;;
21591;SDS011;10958;50.892;3.992;2022-08-05T10:03:34;2.63;;;0.93;;
21591;SDS011;10958;50.892;3.992;2022-08-05T10:06:07;3.47;;;1.20;;
21591;SDS011;10958;50.892;3.992;2022-08-05T10:08:34;6.25;;;1.35;;
21591;SDS011;10958;50.892;3.992;2022-08-05T10:11:02;5.00;;;0.98;;
21591;SDS011;10958;50.892;3.992;2022-08-05T10:13:39;5.00;;;0.97;;
21591;SDS011;10958;50.892;3.992;2022-08-05T10:16:06;1.83;;;0.80;;
21591;SDS011;10958;50.892;3.992;2022-08-05T10:18:51;4.82;;;0.90;;
21591;SDS011;10958;50.892;3.992;2022-08-05T10:21:17;4.50;;;0.95;;
21591;SDS011;10958;50.892;3.992;2022-08-05T10:23:43;3.85;;;1.08;;
21591;SDS011;10958;50.892;3.992;2022-08-05T10:26:10;4.20;;;1.00;;
21591;SDS011;10958;50.892;3.992;2022-08-05T10:28:39;2.13;;;0.82;;
21591;SDS011;10958;50.892;3.992;2022-08-05T10:31:05;4.45;;;1.40;;
21591;SDS011;10958;50.892;3.992;2022-08-05T10:33:32;3.45;;;1.25;;
21591;SDS011;10958;50.892;3.992;2022-08-05T10:35:59;2.35;;;1.13;;
21591;SDS011;10958;50.892;3.992;2022-08-05T10:38:28;3.40;;;1.30;;
21591;SDS011;10958;50.892;3.992;2022-08-05T10:46:08;2.78;;;0.90;;
21591;SDS011;10958;50.892;3.992;2022-08-05T10:48:42;2.95;;;0.90;;
21591;SDS011;10958;50.892;3.992;2022-08-05T10:51:13;2.92;;;0.82;;
21591;SDS011;10958;50.892;3.992;2022-08-05T10:56:15;5.28;;;1.15;;
21591;SDS011;10958;50.892;3.992;2022-08-05T11:01:26;2.38;;;0.80;;
21591;SDS011;10958;50.892;3.992;2022-08-05T11:06:26;4.38;;;0.77;;
21591;SDS011;10958;50.892;3.992;2022-08-05T11:11:45;3.70;;;0.73;;
21591;SDS011;10958;50.892;3.992;2022-08-05T11:14:21;4.45;;;0.65;;
21591;SDS011;10958;50.892;3.992;2022-08-05T11:19:52;1.77;;;0.77;;
21591;SDS011;10958;50.892;3.992;2022-08-05T11:27:56;3.95;;;1.00;;
21591;SDS011;10958;50.892;3.992;2022-08-05T11:39:08;1.70;;;0.68;;
21591;SDS011;10958;50.892;3.992;2022-08-05T11:41:27;2.30;;;0.75;;
21591;SDS011;10958;50.892;3.992;2022-08-05T11:46:25;2.08;;;0.80;;
21591;SDS011;10958;50.892;3.992;2022-08-05T11:48:55;3.90;;;0.95;;
21591;SDS011;10958;50.892;3.992;2022-08-05T11:51:22;3.45;;;0.70;;
21591;SDS011;10958;50.892;3.992;2022-08-05T11:53:48;2.92;;;0.70;;
21591;SDS011;10958;50.892;3.992;2022-08-05T11:56:15;5.60;;;0.90;;
21591;SDS011;10958;50.892;3.992;2022-08-05T11:58:44;2.05;;;1.02;;
21591;SDS011;10958;50.892;3.992;2022-08-05T12:01:12;5.20;;;0.55;;
21591;SDS011;10958;50.892;3.992;2022-08-05T12:03:40;2.30;;;0.70;;
21591;SDS011;10958;50.892;3.992;2022-08-05T12:06:07;3.90;;;0.93;;
21591;SDS011;10958;50.892;3.992;2022-08-05T12:08:38;4.65;;;0.98;;
21591;SDS011;10958;50.892;3.992;2022-08-05T12:11:12;4.88;;;0.85;;
21591;SDS011;10958;50.892;3.992;2022-08-05T12:13:58;4.43;;;0.85;;
21591;SDS011;10958;50.892;3.992;2022-08-05T12:16:25;2.05;;;0.82;;
21591;SDS011;10958;50.892;3.992;2022-08-05T12:18:52;5.55;;;1.02;;
21591;SDS011;10958;50.892;3.992;2022-08-05T12:26:21;3.72;;;0.70;;
21591;SDS011;10958;50.892;3.992;2022-08-05T12:28:47;2.85;;;0.80;;
21591;SDS011;10958;50.892;3.992;2022-08-05T12:31:12;3.03;;;0.70;;
21591;SDS011;10958;50.892;3.992;2022-08-05T12:33:38;2.60;;;0.50;;
21591;SDS011;10958;50.892;3.992;2022-08-05T12:36:05;3.13;;;0.75;;
21591;SDS011;10958;50.892;3.992;2022-08-05T12:38:32;1.55;;;0.63;;
21591;SDS011;10958;50.892;3.992;2022-08-05T12:40:58;2.35;;;0.70;;
21591;SDS011;10958;50.892;3.992;2022-08-05T12:43:23;2.38;;;0.70;;
21591;SDS011;10958;50.892;3.992;2022-08-05T12:45:50;1.88;;;0.60;;
21591;SDS011;10958;50.892;3.992;2022-08-05T12:48:20;2.08;;;0.60;;
21591;SDS011;10958;50.892;3.992;2022-08-05T12:53:43;1.30;;;0.60;;
21591;SDS011;10958;50.892;3.992;2022-08-05T12:56:16;3.42;;;0.90;;
21591;SDS011;10958;50.892;3.992;2022-08-05T12:59:09;3.17;;;0.65;;
21591;SDS011;10958;50.892;3.992;2022-08-05T13:01:36;0.63;;;0.40;;
21591;SDS011;10958;50.892;3.992;2022-08-05T13:04:03;3.55;;;0.55;;
21591;SDS011;10958;50.892;3.992;2022-08-05T13:06:29;1.95;;;0.65;;
21591;SDS011;10958;50.892;3.992;2022-08-05T13:08:55;3.00;;;0.40;;
21591;SDS011;10958;50.892;3.992;2022-08-05T13:11:27;3.85;;;0.60;;
21591;SDS011;10958;50.892;3.992;2022-08-05T13:13:56;1.30;;;0.45;;
21591;SDS011;10958;50.892;3.992;2022-08-05T13:16:22;1.13;;;0.60;;
21591;SDS011;10958;50.892;3.992;2022-08-05T13:18:51;1.45;;;0.40;;
21591;SDS011;10958;50.892;3.992;2022-08-05T13:21:18;1.95;;;0.55;;
21591;SDS011;10958;50.892;3.992;2022-08-05T13:23:44;1.90;;;0.50;;
21591;SDS011;10958;50.892;3.992;2022-08-05T13:26:10;0.45;;;0.43;;
21591;SDS011;10958;50.892;3.992;2022-08-05T13:28:36;2.85;;;0.43;;
21591;SDS011;10958;50.892;3.992;2022-08-05T13:31:01;2.17;;;0.60;;
21591;SDS011;10958;50.892;3.992;2022-08-05T13:33:27;1.48;;;0.38;;
21591;SDS011;10958;50.892;3.992;2022-08-05T13:35:53;2.72;;;0.50;;
21591;SDS011;10958;50.892;3.992;2022-08-05T13:38:19;5.63;;;0.60;;
21591;SDS011;10958;50.892;3.992;2022-08-05T13:40:45;2.00;;;0.50;;
21591;SDS011;10958;50.892;3.992;2022-08-05T13:43:11;1.50;;;0.40;;
21591;SDS011;10958;50.892;3.992;2022-08-05T13:45:37;1.45;;;0.57;;
21591;SDS011;10958;50.892;3.992;2022-08-05T13:48:03;4.20;;;0.45;;
21591;SDS011;10958;50.892;3.992;2022-08-05T13:50:29;3.92;;;0.50;;
21591;SDS011;10958;50.892;3.992;2022-08-05T13:52:55;3.05;;;0.50;;
21591;SDS011;10958;50.892;3.992;2022-08-05T13:55:20;2.17;;;0.47;;
21591;SDS011;10958;50.892;3.992;2022-08-05T13:57:46;0.93;;;0.50;;
21591;SDS011;10958;50.892;3.992;2022-08-05T14:00:12;2.75;;;0.55;;
21591;SDS011;10958;50.892;3.992;2022-08-05T14:02:38;1.85;;;0.50;;
21591;SDS011;10958;50.892;3.992;2022-08-05T14:05:03;3.65;;;0.65;;
21591;SDS011;10958;50.892;3.992;2022-08-05T14:07:40;2.40;;;0.70;;
21591;SDS011;10958;50.892;3.992;2022-08-05T14:10:14;3.85;;;0.60;;
21591;SDS011;10958;50.892;3.992;2022-08-05T14:12:41;3.25;;;0.95;;
21591;SDS011;10958;50.892;3.992;2022-08-05T14:15:07;3.22;;;0.60;;
21591;SDS011;10958;50.892;3.992;2022-08-05T14:17:33;1.05;;;0.47;;
21591;SDS011;10958;50.892;3.992;2022-08-05T14:20:00;3.83;;;0.40;;
21591;SDS011;10958;50.892;3.992;2022-08-05T14:22:26;2.90;;;0.50;;
21591;SDS011;10958;50.892;3.992;2022-08-05T14:24:52;4.47;;;0.50;;
21591;SDS011;10958;50.892;3.992;2022-08-05T14:27:17;4.18;;;0.43;;
21591;SDS011;10958;50.892;3.992;2022-08-05T14:29:43;1.73;;;0.40;;
21591;SDS011;10958;50.892;3.992;2022-08-05T14:32:09;1.58;;;0.50;;
21591;SDS011;10958;50.892;3.992;2022-08-05T14:34:35;3.40;;;0.50;;
21591;SDS011;10958;50.892;3.992;2022-08-05T14:37:00;5.53;;;0.52;;
21591;SDS011;10958;50.892;3.992;2022-08-05T14:39:27;4.95;;;0.60;;
21591;SDS011;10958;50.892;3.992;2022-08-05T14:41:53;2.35;;;0.50;;
21591;SDS011;10958;50.892;3.992;2022-08-05T14:44:19;1.17;;;0.40;;
21591;SDS011;10958;50.892;3.992;2022-08-05T14:46:44;2.58;;;0.70;;
21591;SDS011;10958;50.892;3.992;2022-08-05T14:49:10;1.23;;;0.52;;
21591;SDS011;10958;50.892;3.992;2022-08-05T14:51:36;0.75;;;0.40;;
21591;SDS011;10958;50.892;3.992;2022-08-05T14:54:03;2.67;;;0.60;;
21591;SDS011;10958;50.892;3.992;2022-08-05T14:56:30;3.30;;;0.50;;
21591;SDS011;10958;50.892;3.992;2022-08-05T14:58:55;2.67;;;0.55;;
21591;SDS011;10958;50.892;3.992;2022-08-05T15:01:21;4.43;;;0.65;;
21591;SDS011;10958;50.892;3.992;2022-08-05T15:03:47;1.73;;;0.70;;
21591;SDS011;10958;50.892;3.992;2022-08-05T15:06:12;6.63;;;1.17;;
21591;SDS011;10958;50.892;3.992;2022-08-05T15:08:38;5.20;;;0.70;;
21591;SDS011;10958;50.892;3.992;2022-08-05T15:11:07;2.05;;;0.65;;
21591;SDS011;10958;50.892;3.992;2022-08-05T15:13:33;3.03;;;0.60;;
21591;SDS011;10958;50.892;3.992;2022-08-05T15:15:59;1.95;;;0.77;;
21591;SDS011;10958;50.892;3.992;2022-08-05T15:18:25;3.10;;;0.85;;
21591;SDS011;10958;50.892;3.992;2022-08-05T15:20:51;3.47;;;0.70;;
21591;SDS011;10958;50.892;3.992;2022-08-05T15:23:17;1.98;;;0.50;;
21591;SDS011;10958;50.892;3.992;2022-08-05T15:25:43;3.03;;;0.68;;
21591;SDS011;10958;50.892;3.992;2022-08-05T15:28:09;3.75;;;0.70;;
21591;SDS011;10958;50.892;3.992;2022-08-05T15:30:35;3.95;;;0.60;;
21591;SDS011;10958;50.892;3.992;2022-08-05T15:33:02;4.97;;;1.02;;
21591;SDS011;10958;50.892;3.992;2022-08-05T15:35:28;4.40;;;0.95;;
21591;SDS011;10958;50.892;3.992;2022-08-05T15:37:54;4.20;;;0.80;;
21591;SDS011;10958;50.892;3.992;2022-08-05T15:40:20;4.88;;;1.08;;
21591;SDS011;10958;50.892;3.992;2022-08-05T15:42:46;2.65;;;1.17;;
21591;SDS011;10958;50.892;3.992;2022-08-05T15:45:12;5.00;;;0.90;;
21591;SDS011;10958;50.892;3.992;2022-08-05T15:47:39;1.40;;;0.45;;
21591;SDS011;10958;50.892;3.992;2022-08-05T15:50:06;1.92;;;0.82;;
21591;SDS011;10958;50.892;3.992;2022-08-05T15:52:33;1.70;;;0.50;;
21591;SDS011;10958;50.892;3.992;2022-08-05T15:54:59;4.88;;;0.93;;
21591;SDS011;10958;50.892;3.992;2022-08-05T15:57:24;5.25;;;0.70;;
21591;SDS011;10958;50.892;3.992;2022-08-05T15:59:50;2.50;;;0.73;;
21591;SDS011;10958;50.892;3.992;2022-08-05T16:02:16;2.72;;;0.63;;
21591;SDS011;10958;50.892;3.992;2022-08-05T16:04:42;4.32;;;1.13;;
21591;SDS011;10958;50.892;3.992;2022-08-05T16:07:08;4.10;;;0.73;;